sensor_id;sensor_type;location;lat;lon;timestamp;P1;durP1;ratioP1;P2;durP2;ratioP2
27957;SDS011;15295;42.658;23.374;2023-05-10T00:02:51;11.88;;;8.88;;
27957;SDS011;15295;42.658;23.374;2023-05-10T00:16:03;12.50;;;9.18;;
27957;SDS011;15295;42.658;23.374;2023-05-10T00:26:15;11.32;;;9.30;;
27957;SDS011;15295;42.658;23.374;2023-05-10T00:28:59;13.10;;;10.40;;
27957;SDS011;15295;42.658;23.374;2023-05-10T00:38:14;15.10;;;10.90;;
27957;SDS011;15295;42.658;23.374;2023-05-10T00:40:49;14.13;;;10.98;;
27957;SDS011;15295;42.658;23.374;2023-05-10T00:50:51;13.38;;;11.00;;
27957;SDS011;15295;42.658;23.374;2023-05-10T01:39:25;8.07;;;7.25;;
27957;SDS011;15295;42.658;23.374;2023-05-10T02:13:02;6.35;;;5.45;;
27957;SDS011;15295;42.658;23.374;2023-05-10T02:15:53;8.50;;;6.22;;
27957;SDS011;15295;42.658;23.374;2023-05-10T02:18:44;7.25;;;5.50;;
27957;SDS011;15295;42.658;23.374;2023-05-10T02:22:03;7.55;;;5.95;;
27957;SDS011;15295;42.658;23.374;2023-05-10T02:32:28;9.38;;;5.63;;
27957;SDS011;15295;42.658;23.374;2023-05-10T02:36:10;6.78;;;5.15;;
27957;SDS011;15295;42.658;23.374;2023-05-10T02:38:53;10.57;;;6.28;;
27957;SDS011;15295;42.658;23.374;2023-05-10T02:56:23;8.20;;;5.32;;
27957;SDS011;15295;42.658;23.374;2023-05-10T03:13:13;9.90;;;5.28;;
27957;SDS011;15295;42.658;23.374;2023-05-10T03:16:36;10.52;;;6.07;;
27957;SDS011;15295;42.658;23.374;2023-05-10T03:20:03;8.77;;;6.13;;
27957;SDS011;15295;42.658;23.374;2023-05-10T03:23:04;11.02;;;6.03;;
27957;SDS011;15295;42.658;23.374;2023-05-10T03:26:15;9.40;;;6.07;;
27957;SDS011;15295;42.658;23.374;2023-05-10T03:29:51;10.00;;;6.13;;
27957;SDS011;15295;42.658;23.374;2023-05-10T03:43:01;10.52;;;6.35;;
27957;SDS011;15295;42.658;23.374;2023-05-10T03:45:39;10.00;;;6.93;;
27957;SDS011;15295;42.658;23.374;2023-05-10T03:50:45;11.23;;;6.40;;
27957;SDS011;15295;42.658;23.374;2023-05-10T03:53:14;8.20;;;6.20;;
27957;SDS011;15295;42.658;23.374;2023-05-10T03:55:45;10.93;;;6.28;;
27957;SDS011;15295;42.658;23.374;2023-05-10T03:58:16;8.73;;;6.00;;
27957;SDS011;15295;42.658;23.374;2023-05-10T04:00:50;7.55;;;5.55;;
27957;SDS011;15295;42.658;23.374;2023-05-10T04:03:17;10.40;;;6.22;;
27957;SDS011;15295;42.658;23.374;2023-05-10T04:05:45;11.57;;;6.45;;
27957;SDS011;15295;42.658;23.374;2023-05-10T04:08:37;8.48;;;5.88;;
27957;SDS011;15295;42.658;23.374;2023-05-10T04:11:10;8.82;;;6.18;;
27957;SDS011;15295;42.658;23.374;2023-05-10T04:13:39;10.10;;;6.72;;
27957;SDS011;15295;42.658;23.374;2023-05-10T04:16:10;14.27;;;6.72;;
27957;SDS011;15295;42.658;23.374;2023-05-10T04:18:37;14.23;;;7.18;;
27957;SDS011;15295;42.658;23.374;2023-05-10T04:21:10;11.35;;;6.50;;
27957;SDS011;15295;42.658;23.374;2023-05-10T04:23:39;9.48;;;5.80;;
27957;SDS011;15295;42.658;23.374;2023-05-10T04:26:33;11.45;;;6.57;;
27957;SDS011;15295;42.658;23.374;2023-05-10T04:29:12;11.50;;;6.60;;
27957;SDS011;15295;42.658;23.374;2023-05-10T04:31:37;12.45;;;6.78;;
27957;SDS011;15295;42.658;23.374;2023-05-10T04:40:34;11.52;;;7.55;;
27957;SDS011;15295;42.658;23.374;2023-05-10T04:43:04;12.95;;;7.40;;
27957;SDS011;15295;42.658;23.374;2023-05-10T04:45:29;12.63;;;7.60;;
27957;SDS011;15295;42.658;23.374;2023-05-10T04:47:59;11.52;;;7.35;;
27957;SDS011;15295;42.658;23.374;2023-05-10T04:50:27;11.68;;;8.15;;
27957;SDS011;15295;42.658;23.374;2023-05-10T04:52:52;11.13;;;8.32;;
27957;SDS011;15295;42.658;23.374;2023-05-10T04:55:18;15.27;;;9.55;;
27957;SDS011;15295;42.658;23.374;2023-05-10T04:57:44;11.90;;;7.88;;
27957;SDS011;15295;42.658;23.374;2023-05-10T05:00:34;13.32;;;8.15;;
27957;SDS011;15295;42.658;23.374;2023-05-10T05:03:09;13.65;;;8.75;;
27957;SDS011;15295;42.658;23.374;2023-05-10T05:05:44;19.60;;;10.25;;
27957;SDS011;15295;42.658;23.374;2023-05-10T05:21:39;11.88;;;8.88;;
27957;SDS011;15295;42.658;23.374;2023-05-10T05:24:36;14.27;;;8.40;;
27957;SDS011;15295;42.658;23.374;2023-05-10T05:27:27;16.52;;;11.10;;
27957;SDS011;15295;42.658;23.374;2023-05-10T05:32:33;21.27;;;12.60;;
27957;SDS011;15295;42.658;23.374;2023-05-10T05:35:42;20.13;;;12.18;;
27957;SDS011;15295;42.658;23.374;2023-05-10T05:41:23;19.00;;;11.32;;
27957;SDS011;15295;42.658;23.374;2023-05-10T05:44:05;17.65;;;10.05;;
27957;SDS011;15295;42.658;23.374;2023-05-10T06:00:11;18.10;;;10.27;;
27957;SDS011;15295;42.658;23.374;2023-05-10T06:05:38;18.70;;;10.45;;
27957;SDS011;15295;42.658;23.374;2023-05-10T06:11:24;14.63;;;10.10;;
27957;SDS011;15295;42.658;23.374;2023-05-10T06:13:51;17.42;;;10.30;;
27957;SDS011;15295;42.658;23.374;2023-05-10T06:16:17;15.82;;;9.35;;
27957;SDS011;15295;42.658;23.374;2023-05-10T06:18:57;14.73;;;9.52;;
27957;SDS011;15295;42.658;23.374;2023-05-10T06:21:24;13.85;;;9.57;;
27957;SDS011;15295;42.658;23.374;2023-05-10T06:23:53;14.30;;;10.38;;
27957;SDS011;15295;42.658;23.374;2023-05-10T06:26:33;16.75;;;11.25;;
27957;SDS011;15295;42.658;23.374;2023-05-10T06:29:26;18.92;;;10.25;;
27957;SDS011;15295;42.658;23.374;2023-05-10T06:32:10;15.20;;;9.50;;
27957;SDS011;15295;42.658;23.374;2023-05-10T06:34:44;18.50;;;10.25;;
27957;SDS011;15295;42.658;23.374;2023-05-10T06:37:50;14.02;;;9.55;;
27957;SDS011;15295;42.658;23.374;2023-05-10T06:46:37;14.43;;;9.60;;
27957;SDS011;15295;42.658;23.374;2023-05-10T06:49:23;18.67;;;11.23;;
27957;SDS011;15295;42.658;23.374;2023-05-10T06:52:32;15.85;;;9.57;;
27957;SDS011;15295;42.658;23.374;2023-05-10T06:55:21;17.40;;;9.13;;
27957;SDS011;15295;42.658;23.374;2023-05-10T07:00:22;12.45;;;8.20;;
27957;SDS011;15295;42.658;23.374;2023-05-10T07:03:09;19.27;;;11.43;;
27957;SDS011;15295;42.658;23.374;2023-05-10T11:40:37;16.42;;;8.65;;
27957;SDS011;15295;42.658;23.374;2023-05-10T11:50:52;11.80;;;7.35;;
27957;SDS011;15295;42.658;23.374;2023-05-10T11:53:20;14.77;;;8.15;;
27957;SDS011;15295;42.658;23.374;2023-05-10T11:55:53;14.68;;;8.40;;
27957;SDS011;15295;42.658;23.374;2023-05-10T11:58:30;16.33;;;8.52;;
27957;SDS011;15295;42.658;23.374;2023-05-10T12:01:12;13.15;;;8.07;;
27957;SDS011;15295;42.658;23.374;2023-05-10T12:04:16;15.18;;;8.80;;
27957;SDS011;15295;42.658;23.374;2023-05-10T12:06:42;13.80;;;8.75;;
27957;SDS011;15295;42.658;23.374;2023-05-10T12:09:14;14.25;;;10.35;;
27957;SDS011;15295;42.658;23.374;2023-05-10T14:54:29;16.85;;;8.90;;
27957;SDS011;15295;42.658;23.374;2023-05-10T14:59:49;12.95;;;9.02;;
27957;SDS011;15295;42.658;23.374;2023-05-10T15:10:55;14.80;;;8.45;;
27957;SDS011;15295;42.658;23.374;2023-05-10T15:18:49;12.93;;;8.20;;
27957;SDS011;15295;42.658;23.374;2023-05-10T15:29:30;12.23;;;8.27;;
27957;SDS011;15295;42.658;23.374;2023-05-10T15:32:39;17.38;;;8.60;;
27957;SDS011;15295;42.658;23.374;2023-05-10T15:35:17;12.30;;;8.23;;
27957;SDS011;15295;42.658;23.374;2023-05-10T15:38:13;13.23;;;7.90;;
27957;SDS011;15295;42.658;23.374;2023-05-10T15:44:04;16.83;;;9.00;;
27957;SDS011;15295;42.658;23.374;2023-05-10T15:46:38;22.85;;;11.70;;
27957;SDS011;15295;42.658;23.374;2023-05-10T15:50:19;15.50;;;9.00;;
27957;SDS011;15295;42.658;23.374;2023-05-10T15:53:32;14.57;;;8.38;;
27957;SDS011;15295;42.658;23.374;2023-05-10T15:57:08;17.33;;;8.80;;
27957;SDS011;15295;42.658;23.374;2023-05-10T16:02:59;15.35;;;9.18;;
27957;SDS011;15295;42.658;23.374;2023-05-10T16:09:02;18.23;;;9.68;;
27957;SDS011;15295;42.658;23.374;2023-05-10T16:11:31;13.10;;;8.52;;
27957;SDS011;15295;42.658;23.374;2023-05-10T16:14:30;16.08;;;10.32;;
27957;SDS011;15295;42.658;23.374;2023-05-10T16:20:14;17.52;;;8.82;;
27957;SDS011;15295;42.658;23.374;2023-05-10T16:23:05;14.32;;;8.95;;
27957;SDS011;15295;42.658;23.374;2023-05-10T16:26:02;19.50;;;9.32;;
27957;SDS011;15295;42.658;23.374;2023-05-10T16:40:43;17.40;;;10.13;;
27957;SDS011;15295;42.658;23.374;2023-05-10T16:43:45;20.35;;;10.98;;
27957;SDS011;15295;42.658;23.374;2023-05-10T16:52:15;20.27;;;10.95;;
27957;SDS011;15295;42.658;23.374;2023-05-10T16:54:45;18.08;;;10.90;;
27957;SDS011;15295;42.658;23.374;2023-05-10T16:57:19;19.13;;;10.98;;
27957;SDS011;15295;42.658;23.374;2023-05-10T16:59:44;15.00;;;10.35;;
27957;SDS011;15295;42.658;23.374;2023-05-10T17:02:16;17.38;;;10.77;;
27957;SDS011;15295;42.658;23.374;2023-05-10T17:04:53;19.63;;;10.60;;
27957;SDS011;15295;42.658;23.374;2023-05-10T17:07:45;17.13;;;11.35;;
27957;SDS011;15295;42.658;23.374;2023-05-10T17:10:54;15.15;;;10.18;;
27957;SDS011;15295;42.658;23.374;2023-05-10T17:27:43;18.17;;;10.73;;
27957;SDS011;15295;42.658;23.374;2023-05-10T17:30:29;19.95;;;11.98;;
27957;SDS011;15295;42.658;23.374;2023-05-10T17:36:07;15.15;;;9.70;;
27957;SDS011;15295;42.658;23.374;2023-05-10T17:38:57;14.48;;;9.32;;
27957;SDS011;15295;42.658;23.374;2023-05-10T17:41:34;16.85;;;11.40;;
27957;SDS011;15295;42.658;23.374;2023-05-10T17:44:05;16.33;;;9.07;;
27957;SDS011;15295;42.658;23.374;2023-05-10T17:49:46;14.95;;;9.15;;
27957;SDS011;15295;42.658;23.374;2023-05-10T17:52:14;29.30;;;17.55;;
27957;SDS011;15295;42.658;23.374;2023-05-10T17:55:07;12.90;;;8.98;;
27957;SDS011;15295;42.658;23.374;2023-05-10T18:00:46;13.85;;;8.75;;
27957;SDS011;15295;42.658;23.374;2023-05-10T18:03:13;10.90;;;7.82;;
27957;SDS011;15295;42.658;23.374;2023-05-10T18:05:38;12.40;;;8.60;;
27957;SDS011;15295;42.658;23.374;2023-05-10T18:08:05;11.32;;;8.10;;
27957;SDS011;15295;42.658;23.374;2023-05-10T18:10:34;13.57;;;9.35;;
27957;SDS011;15295;42.658;23.374;2023-05-10T18:13:06;11.73;;;8.65;;
27957;SDS011;15295;42.658;23.374;2023-05-10T18:15:38;13.38;;;8.00;;
27957;SDS011;15295;42.658;23.374;2023-05-10T18:18:15;11.82;;;7.93;;
27957;SDS011;15295;42.658;23.374;2023-05-10T18:20:41;10.90;;;8.25;;
27957;SDS011;15295;42.658;23.374;2023-05-10T18:23:10;16.08;;;8.50;;
27957;SDS011;15295;42.658;23.374;2023-05-10T18:25:36;12.50;;;8.88;;
27957;SDS011;15295;42.658;23.374;2023-05-10T18:28:07;13.18;;;8.27;;
27957;SDS011;15295;42.658;23.374;2023-05-10T18:30:37;18.08;;;9.13;;
27957;SDS011;15295;42.658;23.374;2023-05-10T18:33:05;14.45;;;8.55;;
27957;SDS011;15295;42.658;23.374;2023-05-10T18:35:31;14.48;;;9.30;;
27957;SDS011;15295;42.658;23.374;2023-05-10T18:40:41;12.05;;;8.93;;
27957;SDS011;15295;42.658;23.374;2023-05-10T18:43:07;13.48;;;9.20;;
27957;SDS011;15295;42.658;23.374;2023-05-10T18:45:32;15.15;;;9.30;;
27957;SDS011;15295;42.658;23.374;2023-05-10T18:47:59;13.75;;;8.75;;
27957;SDS011;15295;42.658;23.374;2023-05-10T18:50:38;13.10;;;9.00;;
27957;SDS011;15295;42.658;23.374;2023-05-10T18:53:07;12.63;;;9.30;;
27957;SDS011;15295;42.658;23.374;2023-05-10T18:55:33;13.27;;;8.45;;
27957;SDS011;15295;42.658;23.374;2023-05-10T18:58:02;13.60;;;8.57;;
27957;SDS011;15295;42.658;23.374;2023-05-10T19:00:30;12.70;;;9.40;;
27957;SDS011;15295;42.658;23.374;2023-05-10T19:02:56;12.02;;;9.65;;
27957;SDS011;15295;42.658;23.374;2023-05-10T19:05:21;13.35;;;9.38;;
27957;SDS011;15295;42.658;23.374;2023-05-10T19:07:53;13.68;;;8.98;;
27957;SDS011;15295;42.658;23.374;2023-05-10T19:21:08;12.23;;;9.02;;
27957;SDS011;15295;42.658;23.374;2023-05-10T19:23:38;13.43;;;9.05;;
27957;SDS011;15295;42.658;23.374;2023-05-10T19:26:15;13.93;;;9.50;;
27957;SDS011;15295;42.658;23.374;2023-05-10T19:28:49;14.90;;;9.90;;
27957;SDS011;15295;42.658;23.374;2023-05-10T19:31:31;15.85;;;10.05;;
27957;SDS011;15295;42.658;23.374;2023-05-10T19:34:32;14.93;;;10.27;;
27957;SDS011;15295;42.658;23.374;2023-05-10T19:37:09;16.25;;;10.75;;
27957;SDS011;15295;42.658;23.374;2023-05-10T19:39:36;12.88;;;9.82;;
27957;SDS011;15295;42.658;23.374;2023-05-10T19:42:29;15.10;;;10.43;;
27957;SDS011;15295;42.658;23.374;2023-05-10T19:45:15;14.25;;;10.13;;
27957;SDS011;15295;42.658;23.374;2023-05-10T20:08:55;16.58;;;11.18;;
27957;SDS011;15295;42.658;23.374;2023-05-10T20:11:26;15.40;;;11.07;;
27957;SDS011;15295;42.658;23.374;2023-05-10T20:16:27;18.58;;;11.30;;
27957;SDS011;15295;42.658;23.374;2023-05-10T20:18:53;16.05;;;11.52;;
27957;SDS011;15295;42.658;23.374;2023-05-10T20:21:23;13.85;;;10.73;;
27957;SDS011;15295;42.658;23.374;2023-05-10T20:23:59;15.50;;;10.57;;
27957;SDS011;15295;42.658;23.374;2023-05-10T20:26:35;14.35;;;10.85;;
27957;SDS011;15295;42.658;23.374;2023-05-10T20:29:15;13.82;;;10.55;;
27957;SDS011;15295;42.658;23.374;2023-05-10T20:37:56;16.67;;;11.65;;
27957;SDS011;15295;42.658;23.374;2023-05-10T20:43:44;16.13;;;11.00;;
27957;SDS011;15295;42.658;23.374;2023-05-10T20:46:45;19.83;;;11.50;;
27957;SDS011;15295;42.658;23.374;2023-05-10T20:49:11;19.73;;;12.20;;
27957;SDS011;15295;42.658;23.374;2023-05-10T20:51:38;18.45;;;12.02;;
27957;SDS011;15295;42.658;23.374;2023-05-10T20:54:03;17.08;;;11.95;;
27957;SDS011;15295;42.658;23.374;2023-05-10T21:09:56;15.18;;;11.82;;
27957;SDS011;15295;42.658;23.374;2023-05-10T21:16:03;16.48;;;11.82;;
27957;SDS011;15295;42.658;23.374;2023-05-10T21:18:42;17.95;;;12.75;;
27957;SDS011;15295;42.658;23.374;2023-05-10T21:21:16;16.35;;;11.68;;
27957;SDS011;15295;42.658;23.374;2023-05-10T21:24:03;16.10;;;11.63;;
27957;SDS011;15295;42.658;23.374;2023-05-10T21:26:45;14.27;;;11.93;;
27957;SDS011;15295;42.658;23.374;2023-05-10T21:32:26;18.77;;;11.05;;
27957;SDS011;15295;42.658;23.374;2023-05-10T21:37:46;13.68;;;10.32;;
27957;SDS011;15295;42.658;23.374;2023-05-10T21:46:35;13.93;;;10.32;;
27957;SDS011;15295;42.658;23.374;2023-05-10T21:49:26;13.73;;;10.90;;
27957;SDS011;15295;42.658;23.374;2023-05-10T21:55:49;15.02;;;11.25;;
27957;SDS011;15295;42.658;23.374;2023-05-10T21:58:16;15.68;;;12.10;;
27957;SDS011;15295;42.658;23.374;2023-05-10T22:07:42;13.57;;;10.07;;
27957;SDS011;15295;42.658;23.374;2023-05-10T22:13:35;19.15;;;10.15;;
27957;SDS011;15295;42.658;23.374;2023-05-10T22:16:24;15.02;;;10.95;;
27957;SDS011;15295;42.658;23.374;2023-05-10T22:19:13;17.02;;;11.13;;
27957;SDS011;15295;42.658;23.374;2023-05-10T22:22:30;17.45;;;10.43;;
27957;SDS011;15295;42.658;23.374;2023-05-10T22:25:34;14.98;;;10.70;;
27957;SDS011;15295;42.658;23.374;2023-05-10T22:28:20;13.80;;;11.07;;
27957;SDS011;15295;42.658;23.374;2023-05-10T22:33:53;14.93;;;10.77;;
27957;SDS011;15295;42.658;23.374;2023-05-10T22:36:50;17.65;;;11.38;;
27957;SDS011;15295;42.658;23.374;2023-05-10T22:39:19;16.00;;;10.55;;
27957;SDS011;15295;42.658;23.374;2023-05-10T22:42:12;15.25;;;11.65;;
27957;SDS011;15295;42.658;23.374;2023-05-10T22:44:53;15.45;;;10.85;;
27957;SDS011;15295;42.658;23.374;2023-05-10T22:47:45;14.38;;;10.65;;
27957;SDS011;15295;42.658;23.374;2023-05-10T22:50:50;13.57;;;10.63;;
27957;SDS011;15295;42.658;23.374;2023-05-10T22:57:18;16.52;;;9.90;;
27957;SDS011;15295;42.658;23.374;2023-05-10T23:00:27;13.13;;;9.82;;
27957;SDS011;15295;42.658;23.374;2023-05-10T23:11:27;11.55;;;7.63;;
27957;SDS011;15295;42.658;23.374;2023-05-10T23:14:30;8.63;;;7.47;;
27957;SDS011;15295;42.658;23.374;2023-05-10T23:17:15;9.75;;;7.43;;
27957;SDS011;15295;42.658;23.374;2023-05-10T23:20:22;10.95;;;8.32;;
27957;SDS011;15295;42.658;23.374;2023-05-10T23:23:22;11.23;;;7.95;;
27957;SDS011;15295;42.658;23.374;2023-05-10T23:26:03;12.85;;;8.82;;
27957;SDS011;15295;42.658;23.374;2023-05-10T23:28:55;11.77;;;8.98;;
27957;SDS011;15295;42.658;23.374;2023-05-10T23:32:05;10.25;;;7.10;;
27957;SDS011;15295;42.658;23.374;2023-05-10T23:35:09;10.13;;;7.40;;
27957;SDS011;15295;42.658;23.374;2023-05-10T23:37:54;11.48;;;7.53;;
27957;SDS011;15295;42.658;23.374;2023-05-10T23:41:07;15.68;;;7.57;;
27957;SDS011;15295;42.658;23.374;2023-05-10T23:57:10;10.85;;;6.82;;
